Time;durP1;ratioP1;P1;durP2;ratioP2;P2;SDS_P1;SDS_P2;PMS_P1;PMS_P2;Temp;Humidity;BMP_temperature;BMP_pressure;BME280_temperature;BME280_humidity;BME280_pressure;Samples;Min_cycle;Max_cycle;Signal;HPM_P1;HPM_P2
2023/02/10 00:02:22;;;;;;;42.17;28.00;;;8.00;99.90;;;;;;5051740;28;20188;-69
2023/02/10 00:04:48;;;;;;;41.47;27.10;;;8.10;99.90;;;;;;5054285;28;20439;-69
2023/02/10 00:07:14;;;;;;;42.00;29.40;;;8.10;99.90;;;;;;5036232;28;20748;-69
2023/02/10 00:09:39;;;;;;;38.17;26.20;;;8.10;99.90;;;;;;5039526;28;20260;-69
2023/02/10 00:12:07;;;;;;;44.47;28.30;;;8.00;99.90;;;;;;5053242;28;20186;-74
2023/02/10 00:14:33;;;;;;;38.23;27.37;;;8.10;99.90;;;;;;5051584;28;20209;-71
2023/02/10 00:16:59;;;;;;;44.10;27.97;;;8.10;99.90;;;;;;5054028;28;20515;-69
2023/02/10 00:19:26;;;;;;;40.67;27.37;;;8.10;99.90;;;;;;5053151;28;20607;-69
2023/02/10 00:21:52;;;;;;;41.60;27.60;;;8.10;99.90;;;;;;5047391;28;20425;-69
2023/02/10 00:24:19;;;;;;;44.20;28.63;;;8.10;99.90;;;;;;5033401;28;20909;-69
2023/02/10 00:26:45;;;;;;;44.03;27.00;;;8.10;99.90;;;;;;5034779;28;20490;-69
2023/02/10 00:29:11;;;;;;;39.30;26.37;;;8.10;99.90;;;;;;5051602;28;20439;-69
2023/02/10 00:31:37;;;;;;;38.20;26.67;;;8.10;99.90;;;;;;5051105;28;20446;-73
2023/02/10 00:34:03;;;;;;;45.43;27.10;;;8.10;99.90;;;;;;5033944;28;20468;-69
2023/02/10 00:36:29;;;;;;;40.97;27.07;;;8.20;99.90;;;;;;5016318;28;20177;-69
2023/02/10 00:38:55;;;;;;;37.80;27.20;;;8.10;99.90;;;;;;5038176;28;20190;-70
2023/02/10 00:41:22;;;;;;;38.93;27.40;;;8.20;99.90;;;;;;5032809;28;20556;-69
2023/02/10 00:43:48;;;;;;;38.53;28.47;;;8.20;99.90;;;;;;5037053;28;20442;-69
2023/02/10 00:46:17;;;;;;;42.63;27.50;;;8.20;99.90;;;;;;5032446;28;20575;-72
2023/02/10 00:48:43;;;;;;;42.50;28.00;;;8.20;99.90;;;;;;5031517;28;20584;-69
2023/02/10 00:51:09;;;;;;;40.17;27.43;;;8.20;99.90;;;;;;5051866;28;20431;-69
2023/02/10 00:53:35;;;;;;;38.17;26.30;;;8.20;99.90;;;;;;5048612;28;20490;-69
2023/02/10 00:56:01;;;;;;;36.53;25.20;;;8.20;99.90;;;;;;5033711;28;20198;-69
2023/02/10 00:58:28;;;;;;;39.47;28.10;;;8.20;99.90;;;;;;5045875;28;20697;-69
2023/02/10 01:00:55;;;;;;;37.10;27.00;;;8.20;99.90;;;;;;5046295;28;20432;-69
2023/02/10 01:03:21;;;;;;;42.27;28.03;;;8.20;99.90;;;;;;5019010;28;20954;-69
2023/02/10 01:05:46;;;;;;;44.63;28.80;;;8.20;99.90;;;;;;5033148;28;20479;-69
2023/02/10 01:08:13;;;;;;;43.47;28.83;;;8.20;99.90;;;;;;5047344;28;20427;-69
2023/02/10 01:10:39;;;;;;;39.63;28.10;;;8.30;99.90;;;;;;5017007;28;20186;-69
2023/02/10 01:13:06;;;;;;;45.07;29.37;;;8.20;99.90;;;;;;5039859;28;20930;-69
2023/02/10 01:15:32;;;;;;;42.30;27.80;;;8.20;99.90;;;;;;5041903;28;20230;-69
2023/02/10 01:17:58;;;;;;;44.97;29.67;;;8.30;99.90;;;;;;5029965;28;20446;-69
2023/02/10 01:20:25;;;;;;;43.17;29.80;;;8.30;99.90;;;;;;5043604;28;20421;-69
2023/02/10 01:22:51;;;;;;;39.13;28.10;;;8.30;99.90;;;;;;5033219;28;20232;-74
2023/02/10 01:25:18;;;;;;;43.77;29.10;;;8.30;99.90;;;;;;5033888;28;20478;-70
2023/02/10 01:27:44;;;;;;;40.07;28.23;;;8.20;99.90;;;;;;5053297;28;20408;-69
2023/02/10 01:30:10;;;;;;;47.33;29.57;;;8.20;99.90;;;;;;5044911;28;20900;-77
2023/02/10 01:32:36;;;;;;;48.30;29.80;;;8.30;99.90;;;;;;5048424;28;20594;-69
2023/02/10 01:35:02;;;;;;;41.73;28.00;;;8.20;99.90;;;;;;5051010;28;20559;-69
2023/02/10 01:37:28;;;;;;;46.00;28.57;;;8.20;99.90;;;;;;5047121;28;20514;-69
2023/02/10 01:39:54;;;;;;;44.37;29.50;;;8.20;99.90;;;;;;5052609;28;20435;-69
2023/02/10 01:42:19;;;;;;;44.00;28.07;;;8.20;99.90;;;;;;5042092;28;20693;-69
2023/02/10 01:44:45;;;;;;;44.43;29.30;;;8.30;99.90;;;;;;5049592;28;20196;-69
2023/02/10 01:47:11;;;;;;;42.27;28.27;;;8.30;99.90;;;;;;5038887;28;20186;-73
2023/02/10 01:49:40;;;;;;;41.33;27.40;;;8.30;99.90;;;;;;5045119;28;20578;-69
2023/02/10 01:52:11;;;;;;;39.07;27.80;;;8.30;99.90;;;;;;5052655;28;20491;-69
2023/02/10 01:55:08;;;;;;;42.97;28.70;;;8.30;99.90;;;;;;5052844;28;20526;-69
2023/02/10 01:57:37;;;;;;;40.00;28.33;;;8.30;99.90;;;;;;5050136;28;20428;-69
2023/02/10 02:00:06;;;;;;;48.30;28.90;;;8.30;99.90;;;;;;5052007;28;20957;-69
2023/02/10 02:02:34;;;;;;;47.10;28.93;;;8.30;99.90;;;;;;5034377;28;20420;-69
2023/02/10 02:05:03;;;;;;;43.27;28.27;;;8.20;99.90;;;;;;5049848;28;20537;-69
2023/02/10 02:07:33;;;;;;;48.07;28.23;;;8.20;99.90;;;;;;5041328;28;20440;-69
2023/02/10 02:10:00;;;;;;;42.40;27.83;;;8.20;99.90;;;;;;5027207;28;20921;-69
2023/02/10 02:12:53;;;;;;;43.57;30.87;;;8.30;99.90;;;;;;5023846;28;20525;-69
2023/02/10 02:15:27;;;;;;;43.73;28.47;;;8.20;99.90;;;;;;5033976;28;20459;-70
2023/02/10 02:18:08;;;;;;;46.43;28.63;;;8.20;99.90;;;;;;5018314;28;20537;-69
2023/02/10 02:20:52;;;;;;;44.57;28.80;;;8.20;99.90;;;;;;5021925;28;21053;-69
2023/02/10 02:23:26;;;;;;;41.63;28.53;;;8.20;99.90;;;;;;5048128;28;20439;-69
2023/02/10 02:26:39;;;;;;;41.53;28.20;;;8.20;99.90;;;;;;5050966;28;20401;-70
2023/02/10 02:33:39;;;;;;;40.57;26.33;;;8.20;99.90;;;;;;5047789;28;20974;-75
2023/02/10 02:36:16;;;;;;;46.73;30.20;;;8.20;99.90;;;;;;4962006;28;20468;-69
2023/02/10 02:38:42;;;;;;;42.03;27.40;;;8.10;99.90;;;;;;5034593;28;20531;-70
2023/02/10 02:41:09;;;;;;;42.20;27.23;;;8.10;99.90;;;;;;5042021;28;20468;-69
2023/02/10 02:43:38;;;;;;;42.13;28.50;;;8.10;99.90;;;;;;5020747;28;20433;-69
2023/02/10 02:46:20;;;;;;;45.13;27.83;;;8.20;99.90;;;;;;5035265;28;20436;-69
2023/02/10 02:48:49;;;;;;;43.30;28.37;;;8.10;99.90;;;;;;5032532;28;20491;-69
2023/02/10 02:51:44;;;;;;;44.70;29.13;;;8.00;99.90;;;;;;5014076;28;20951;-71
2023/02/10 02:54:23;;;;;;;41.23;27.30;;;8.00;99.90;;;;;;5043310;28;20444;-75
2023/02/10 02:57:09;;;;;;;41.10;27.40;;;8.00;99.90;;;;;;5014599;28;20439;-69
2023/02/10 02:59:51;;;;;;;46.37;29.00;;;8.10;99.90;;;;;;5016020;28;20849;-69
2023/02/10 03:02:21;;;;;;;41.43;27.30;;;8.10;99.90;;;;;;5046691;28;20865;-69
2023/02/10 03:04:48;;;;;;;42.13;29.77;;;8.10;99.90;;;;;;5045447;28;20446;-69
2023/02/10 03:07:14;;;;;;;45.67;27.43;;;8.10;99.90;;;;;;5038293;28;20780;-69
2023/02/10 03:09:40;;;;;;;44.00;27.77;;;8.00;99.90;;;;;;5050314;28;20432;-70
2023/02/10 03:12:06;;;;;;;45.17;28.90;;;8.10;99.90;;;;;;5034605;28;20491;-69
2023/02/10 03:14:32;;;;;;;46.90;29.20;;;8.00;99.90;;;;;;5039160;28;20468;-69
2023/02/10 03:16:58;;;;;;;44.97;29.70;;;8.00;99.90;;;;;;5040761;28;20515;-69
2023/02/10 03:19:23;;;;;;;48.00;29.60;;;7.90;99.90;;;;;;5034526;28;20190;-69
2023/02/10 03:21:49;;;;;;;45.17;28.90;;;8.00;99.90;;;;;;5048941;28;20231;-69
2023/02/10 03:24:16;;;;;;;45.80;29.40;;;7.90;99.90;;;;;;5039113;28;20190;-69
2023/02/10 03:26:42;;;;;;;44.70;28.87;;;8.00;99.90;;;;;;5049079;28;20212;-69
2023/02/10 03:29:09;;;;;;;46.20;29.37;;;8.00;99.90;;;;;;5052874;28;20428;-69
2023/02/10 03:31:35;;;;;;;45.87;29.80;;;8.00;99.90;;;;;;5053939;28;20193;-69
2023/02/10 03:34:01;;;;;;;44.47;29.00;;;8.00;99.90;;;;;;5054438;28;20427;-69
2023/02/10 03:36:26;;;;;;;45.50;29.20;;;8.00;99.90;;;;;;5050311;28;20195;-69
2023/02/10 03:38:52;;;;;;;43.23;28.20;;;8.00;99.90;;;;;;5009188;28;20188;-69
2023/02/10 03:41:18;;;;;;;45.87;30.27;;;8.00;99.90;;;;;;5048241;28;20220;-71
2023/02/10 03:43:43;;;;;;;45.10;29.00;;;8.00;99.90;;;;;;5056611;28;20290;-69
2023/02/10 03:46:10;;;;;;;48.00;28.33;;;7.90;99.90;;;;;;5063308;28;20187;-69
2023/02/10 03:48:37;;;;;;;42.67;27.43;;;7.90;99.90;;;;;;5074653;28;20623;-69
2023/02/10 03:51:05;;;;;;;45.47;29.17;;;8.00;99.90;;;;;;5075265;28;20440;-69
2023/02/10 03:53:32;;;;;;;48.07;30.50;;;7.90;99.90;;;;;;5072253;28;20192;-69
2023/02/10 03:55:58;;;;;;;46.83;29.67;;;8.00;99.90;;;;;;5065133;28;21060;-69
2023/02/10 03:58:25;;;;;;;44.60;28.93;;;7.90;99.90;;;;;;5066831;28;20419;-69
2023/02/10 04:00:50;;;;;;;41.40;28.47;;;7.90;99.90;;;;;;5072840;28;20431;-80
2023/02/10 04:03:17;;;;;;;43.10;29.00;;;7.80;99.90;;;;;;5054460;28;20435;-69
2023/02/10 04:05:42;;;;;;;41.43;29.30;;;7.80;99.90;;;;;;5059331;28;20185;-69
2023/02/10 04:08:09;;;;;;;43.10;30.60;;;7.80;99.90;;;;;;5074928;28;20407;-69
2023/02/10 04:10:34;;;;;;;45.03;29.03;;;7.70;99.90;;;;;;5072700;28;20191;-68
2023/02/10 04:13:00;;;;;;;40.93;27.63;;;7.70;99.90;;;;;;5074510;28;20404;-69
2023/02/10 04:15:26;;;;;;;43.43;28.40;;;7.60;99.90;;;;;;5073710;28;20811;-80
2023/02/10 04:17:52;;;;;;;45.23;27.67;;;7.60;99.90;;;;;;5066755;28;20638;-69
2023/02/10 04:20:18;;;;;;;39.53;26.53;;;7.50;99.90;;;;;;5054402;28;20403;-69
2023/02/10 04:22:43;;;;;;;40.70;28.23;;;7.40;99.90;;;;;;5053454;28;20184;-68
2023/02/10 04:25:09;;;;;;;43.10;26.67;;;7.30;99.90;;;;;;5054928;28;20177;-68
2023/02/10 04:27:35;;;;;;;37.03;26.10;;;7.20;99.90;;;;;;5053621;28;21006;-69
2023/02/10 04:30:01;;;;;;;41.40;27.67;;;7.10;99.90;;;;;;5054490;28;20256;-69
2023/02/10 04:32:27;;;;;;;43.43;28.47;;;7.20;99.90;;;;;;5056700;28;20200;-69
2023/02/10 04:34:52;;;;;;;44.07;27.93;;;7.00;99.90;;;;;;5073911;28;20951;-69
2023/02/10 04:37:18;;;;;;;45.77;28.97;;;6.90;99.90;;;;;;5073927;28;20182;-68
2023/02/10 04:39:44;;;;;;;42.87;29.70;;;6.90;99.90;;;;;;5071013;28;20188;-69
2023/02/10 04:42:09;;;;;;;45.03;28.20;;;6.90;99.90;;;;;;5072043;28;20287;-69
2023/02/10 04:44:37;;;;;;;39.80;29.40;;;6.80;99.90;;;;;;5072833;28;20634;-69
2023/02/10 04:47:03;;;;;;;40.60;25.90;;;6.80;99.90;;;;;;5064406;28;20429;-76
2023/02/10 04:49:29;;;;;;;46.80;30.30;;;6.70;99.90;;;;;;5065164;28;20189;-69
2023/02/10 04:51:54;;;;;;;42.67;28.60;;;6.60;99.90;;;;;;5057870;28;20420;-69
2023/02/10 04:54:20;;;;;;;46.30;29.27;;;6.60;99.90;;;;;;5072101;28;20671;-69
2023/02/10 04:56:46;;;;;;;45.57;28.87;;;6.70;99.90;;;;;;5071284;28;20460;-69
2023/02/10 04:59:12;;;;;;;40.17;28.23;;;6.60;99.90;;;;;;5073353;28;20187;-69
2023/02/10 05:01:38;;;;;;;43.13;27.47;;;6.60;99.90;;;;;;5071485;28;20509;-69
2023/02/10 05:04:04;;;;;;;40.33;27.83;;;6.50;99.90;;;;;;5073433;28;20492;-69
2023/02/10 05:06:30;;;;;;;41.87;27.50;;;6.50;99.90;;;;;;5072416;28;20413;-69
2023/02/10 05:08:56;;;;;;;47.40;27.57;;;6.40;99.90;;;;;;5072967;28;20170;-69
2023/02/10 05:11:22;;;;;;;37.20;25.40;;;6.30;99.90;;;;;;5073358;28;20441;-69
2023/02/10 05:13:47;;;;;;;41.72;27.75;;;6.30;99.90;;;;;;5064599;28;20187;-69
2023/02/10 05:16:14;;;;;;;45.40;30.97;;;6.30;99.90;;;;;;5059513;28;20216;-69
2023/02/10 05:18:40;;;;;;;47.83;27.80;;;6.20;99.90;;;;;;5066981;28;20186;-69
2023/02/10 05:21:09;;;;;;;45.50;30.83;;;6.20;99.90;;;;;;5071860;28;20412;-69
2023/02/10 05:23:35;;;;;;;42.67;28.17;;;6.20;99.90;;;;;;5070516;28;20502;-69
2023/02/10 05:26:01;;;;;;;51.95;28.83;;;6.20;99.90;;;;;;5072802;28;20419;-69
2023/02/10 05:28:27;;;;;;;47.73;30.67;;;6.20;99.90;;;;;;5058507;28;20179;-81
2023/02/10 05:30:53;;;;;;;43.70;28.17;;;6.10;99.90;;;;;;5052990;28;20407;-69
2023/02/10 05:33:19;;;;;;;44.90;26.67;;;6.10;99.90;;;;;;5051759;28;20377;-68
2023/02/10 05:35:46;;;;;;;45.63;30.30;;;6.10;99.90;;;;;;5052126;28;20522;-69
2023/02/10 05:38:11;;;;;;;39.73;28.10;;;6.10;99.90;;;;;;5051653;28;20420;-69
2023/02/10 05:40:37;;;;;;;46.40;30.17;;;6.10;99.90;;;;;;5050170;28;20460;-69
2023/02/10 05:43:03;;;;;;;44.03;29.00;;;6.00;99.90;;;;;;5056023;28;20266;-69
2023/02/10 05:45:29;;;;;;;46.03;30.23;;;6.00;99.90;;;;;;5059349;28;20830;-69
2023/02/10 05:47:55;;;;;;;42.03;27.10;;;6.00;99.90;;;;;;5071273;28;20173;-69
2023/02/10 05:50:20;;;;;;;40.57;27.90;;;6.00;99.90;;;;;;5051905;28;20171;-69
2023/02/10 05:52:46;;;;;;;44.63;29.67;;;6.00;99.90;;;;;;5052457;28;20209;-68
2023/02/10 05:55:12;;;;;;;43.90;28.37;;;6.00;99.90;;;;;;5051468;28;20596;-69
2023/02/10 05:57:38;;;;;;;41.87;28.17;;;6.00;99.90;;;;;;5060690;28;20177;-69
2023/02/10 06:00:06;;;;;;;43.37;28.77;;;6.00;99.90;;;;;;5071712;28;20424;-69
2023/02/10 06:02:31;;;;;;;43.70;26.63;;;6.00;99.90;;;;;;5070173;28;20179;-69
2023/02/10 06:04:57;;;;;;;44.27;27.53;;;6.00;99.90;;;;;;5071428;28;20457;-69
2023/02/10 06:07:23;;;;;;;47.13;30.07;;;6.00;99.90;;;;;;5071590;28;20182;-69
2023/02/10 06:09:48;;;;;;;47.03;30.20;;;6.00;99.90;;;;;;5070946;28;20189;-69
2023/02/10 06:12:14;;;;;;;48.73;31.37;;;6.10;99.90;;;;;;5068097;28;20196;-69
2023/02/10 06:14:40;;;;;;;46.37;27.90;;;6.00;99.90;;;;;;5052084;28;20283;-69
2023/02/10 06:17:08;;;;;;;46.90;30.63;;;6.00;99.90;;;;;;5063878;28;20633;-69
2023/02/10 06:19:37;;;;;;;47.10;29.10;;;6.00;99.90;;;;;;5071353;28;20431;-69
2023/02/10 06:22:04;;;;;;;48.33;30.20;;;6.10;99.90;;;;;;5072389;28;20421;-69
2023/02/10 06:24:30;;;;;;;46.77;30.23;;;6.10;99.90;;;;;;5061397;28;20441;-69
2023/02/10 06:26:56;;;;;;;45.27;27.97;;;6.00;99.90;;;;;;5052541;28;20409;-69
2023/02/10 06:29:22;;;;;;;47.60;28.33;;;5.90;99.90;;;;;;5068886;28;20255;-69
2023/02/10 06:31:47;;;;;;;43.73;29.87;;;5.80;99.90;;;;;;5062491;28;20432;-69
2023/02/10 06:34:13;;;;;;;40.17;27.90;;;5.80;99.90;;;;;;5055555;28;20515;-69
2023/02/10 06:36:39;;;;;;;44.67;29.07;;;5.90;99.90;;;;;;5071736;28;20170;-69
2023/02/10 06:39:05;;;;;;;45.37;29.43;;;5.80;99.90;;;;;;5070815;28;20193;-69
2023/02/10 06:41:31;;;;;;;48.42;29.13;;;5.80;99.90;;;;;;5060376;28;20325;-69
2023/02/10 06:43:57;;;;;;;44.23;28.43;;;5.90;99.90;;;;;;5052321;28;20261;-69
2023/02/10 06:46:24;;;;;;;50.63;31.53;;;5.90;99.90;;;;;;5016114;28;20532;-69
2023/02/10 06:48:50;;;;;;;42.20;27.92;;;5.90;99.90;;;;;;5033926;28;20187;-69
2023/02/10 06:51:16;;;;;;;49.03;29.47;;;6.00;99.90;;;;;;5031841;28;20667;-69
2023/02/10 06:53:42;;;;;;;45.10;28.47;;;5.90;99.90;;;;;;5039569;28;20468;-69
2023/02/10 06:56:08;;;;;;;50.57;31.07;;;5.90;99.90;;;;;;5033681;28;20547;-69
2023/02/10 06:58:34;;;;;;;45.30;28.23;;;5.90;99.90;;;;;;5047040;28;20405;-69
2023/02/10 07:01:00;;;;;;;47.50;30.97;;;6.00;99.90;;;;;;5035060;28;20901;-70
2023/02/10 07:03:27;;;;;;;44.17;28.97;;;6.00;99.90;;;;;;5032470;28;20527;-69
2023/02/10 07:05:52;;;;;;;47.23;28.67;;;5.90;99.90;;;;;;5018085;28;20429;-69
2023/02/10 07:08:18;;;;;;;41.23;27.50;;;5.90;99.90;;;;;;5018477;28;20915;-69
2023/02/10 07:10:44;;;;;;;44.07;30.23;;;5.90;99.90;;;;;;5027823;28;20278;-69
2023/02/10 07:13:10;;;;;;;42.10;26.97;;;5.90;99.90;;;;;;5053929;28;20173;-69
2023/02/10 07:15:36;;;;;;;46.43;28.97;;;5.90;99.90;;;;;;5051793;28;20585;-68
2023/02/10 07:18:01;;;;;;;46.77;32.57;;;5.90;99.90;;;;;;5025614;28;20188;-71
2023/02/10 07:20:27;;;;;;;46.03;31.40;;;5.90;99.90;;;;;;5037822;28;20409;-70
2023/02/10 07:22:53;;;;;;;50.50;30.43;;;5.90;99.90;;;;;;5034491;28;20180;-70
2023/02/10 07:25:19;;;;;;;54.50;31.67;;;6.00;99.90;;;;;;5046934;28;20443;-68
2023/02/10 07:27:44;;;;;;;47.23;31.73;;;6.10;99.90;;;;;;5035153;28;20180;-68
2023/02/10 07:30:12;;;;;;;44.73;29.53;;;6.10;99.90;;;;;;5035887;28;20576;-71
2023/02/10 07:32:37;;;;;;;50.80;28.90;;;6.10;99.90;;;;;;5049243;28;20183;-71
2023/02/10 07:35:03;;;;;;;46.57;32.00;;;6.10;99.90;;;;;;5053821;28;20473;-72
2023/02/10 07:37:29;;;;;;;46.10;29.03;;;6.10;99.90;;;;;;5055545;28;20667;-72
2023/02/10 07:39:55;;;;;;;48.70;30.03;;;6.10;99.90;;;;;;5054910;28;20913;-72
2023/02/10 07:42:21;;;;;;;46.87;30.87;;;6.20;99.90;;;;;;5053056;28;20476;-72
2023/02/10 07:44:46;;;;;;;52.13;30.17;;;6.20;99.90;;;;;;5038504;28;20183;-71
2023/02/10 07:47:12;;;;;;;50.40;30.87;;;6.30;99.90;;;;;;5055276;28;20244;-70
2023/02/10 07:49:38;;;;;;;46.43;29.10;;;6.30;99.90;;;;;;5054311;28;20179;-71
2023/02/10 07:52:04;;;;;;;47.57;29.50;;;6.40;99.90;;;;;;5045415;28;20184;-72
2023/02/10 07:54:30;;;;;;;44.37;30.60;;;6.60;99.90;;;;;;5050053;28;20219;-71
2023/02/10 07:56:58;;;;;;;47.13;30.90;;;7.40;99.90;;;;;;5054655;28;20407;-74
2023/02/10 07:59:24;;;;;;;44.83;30.13;;;8.20;99.90;;;;;;5037338;28;20666;-73
2023/02/10 08:01:50;;;;;;;43.17;27.57;;;8.90;99.90;;;;;;5053064;28;20424;-71
2023/02/10 08:04:15;;;;;;;45.97;31.53;;;9.50;99.90;;;;;;5054763;28;20413;-71
2023/02/10 08:06:41;;;;;;;42.23;29.47;;;10.10;99.90;;;;;;5054059;28;20182;-72
2023/02/10 08:09:08;;;;;;;41.30;29.03;;;10.60;99.90;;;;;;5054806;28;20171;-71
2023/02/10 08:11:33;;;;;;;45.60;32.57;;;11.00;99.90;;;;;;5053872;28;20626;-72
2023/02/10 08:14:01;;;;;;;43.57;29.90;;;11.40;99.20;;;;;;5054838;28;20502;-71
2023/02/10 08:16:27;;;;;;;41.37;29.73;;;11.80;97.40;;;;;;5054780;28;20249;-71
2023/02/10 08:18:52;;;;;;;44.30;31.80;;;12.00;95.50;;;;;;5023473;28;20435;-71
2023/02/10 08:21:18;;;;;;;42.97;30.70;;;12.20;94.40;;;;;;5034723;28;20176;-71
2023/02/10 08:23:45;;;;;;;41.87;28.43;;;12.50;93.50;;;;;;5033439;28;20175;-74
2023/02/10 08:26:12;;;;;;;42.50;32.63;;;12.70;92.80;;;;;;5034095;28;20647;-71
2023/02/10 08:28:39;;;;;;;40.87;28.70;;;12.90;91.90;;;;;;5033959;28;20413;-71
2023/02/10 08:31:07;;;;;;;39.97;29.00;;;13.10;91.30;;;;;;5033909;28;20438;-71
2023/02/10 08:33:37;;;;;;;41.40;32.73;;;12.90;87.60;;;;;;5016645;28;20425;-70
2023/02/10 08:36:09;;;;;;;40.23;28.80;;;12.60;87.10;;;;;;5048037;28;20847;-71
2023/02/10 08:38:35;;;;;;;42.77;30.30;;;12.10;87.60;;;;;;5036093;28;20392;-77
2023/02/10 08:41:01;;;;;;;47.37;31.87;;;11.70;89.30;;;;;;5053814;28;20979;-67
2023/02/10 08:43:27;;;;;;;43.43;30.33;;;11.40;90.50;;;;;;5051796;28;20177;-67
2023/02/10 08:46:00;;;;;;;40.20;28.87;;;11.00;91.40;;;;;;5052212;28;20982;-67
2023/02/10 08:48:27;;;;;;;42.77;30.80;;;10.70;92.40;;;;;;5054150;28;20422;-67
2023/02/10 08:50:53;;;;;;;43.20;29.20;;;10.40;93.90;;;;;;5053608;28;20561;-68
2023/02/10 08:53:19;;;;;;;45.53;30.30;;;10.20;95.00;;;;;;5045378;28;20510;-67
2023/02/10 08:55:59;;;;;;;44.40;29.70;;;9.90;96.60;;;;;;5053094;28;20216;-67
2023/02/10 08:58:25;;;;;;;39.13;27.60;;;9.70;97.50;;;;;;5054061;28;20408;-67
2023/02/10 09:00:51;;;;;;;46.17;30.43;;;9.50;98.30;;;;;;5053234;28;20408;-68
2023/02/10 09:03:17;;;;;;;48.03;29.43;;;9.40;99.20;;;;;;5053571;28;20502;-68
2023/02/10 09:05:45;;;;;;;45.60;28.43;;;9.30;99.90;;;;;;5035327;28;20591;-68
2023/02/10 09:08:12;;;;;;;43.73;29.70;;;9.10;99.90;;;;;;5036429;28;20528;-68
2023/02/10 09:10:40;;;;;;;44.73;28.30;;;9.00;99.90;;;;;;5016477;28;20436;-69
2023/02/10 09:13:09;;;;;;;50.43;28.80;;;8.90;99.90;;;;;;5033565;28;20536;-69
2023/02/10 09:15:39;;;;;;;40.93;24.93;;;8.70;99.90;;;;;;5015625;28;20959;-68
2023/02/10 09:18:06;;;;;;;42.33;28.07;;;8.60;99.90;;;;;;5016153;28;20417;-68
2023/02/10 09:20:32;;;;;;;47.57;29.63;;;8.50;99.90;;;;;;5033544;28;20416;-70
2023/02/10 09:22:58;;;;;;;42.77;26.93;;;8.50;99.90;;;;;;5035829;28;20896;-68
2023/02/10 09:25:24;;;;;;;40.83;26.10;;;8.50;99.90;;;;;;5037221;28;20417;-68
2023/02/10 09:27:51;;;;;;;43.63;25.80;;;8.60;99.90;;;;;;5014100;28;20175;-68
2023/02/10 09:30:17;;;;;;;45.70;26.50;;;8.60;99.90;;;;;;5036497;28;20603;-72
2023/02/10 09:32:43;;;;;;;42.43;28.10;;;8.70;99.90;;;;;;5037443;28;20478;-71
2023/02/10 09:35:09;;;;;;;43.90;27.30;;;8.70;99.90;;;;;;5051812;28;20241;-71
2023/02/10 09:37:34;;;;;;;43.23;27.27;;;8.70;99.90;;;;;;5053082;28;20170;-71
2023/02/10 09:40:00;;;;;;;39.43;26.03;;;8.80;99.90;;;;;;5032028;28;20243;-71
2023/02/10 09:42:47;;;;;;;45.70;27.30;;;8.80;99.90;;;;;;5065028;28;20645;-71
2023/02/10 09:45:17;;;;;;;39.03;26.10;;;8.80;99.90;;;;;;5056291;28;20641;-71
2023/02/10 09:48:02;;;;;;;43.47;27.93;;;8.80;99.90;;;;;;5064417;28;20435;-71
2023/02/10 09:50:32;;;;;;;43.80;26.57;;;8.90;99.90;;;;;;5073061;28;20462;-71
2023/02/10 09:53:10;;;;;;;41.30;26.77;;;9.00;99.90;;;;;;5071749;28;20508;-71
2023/02/10 09:55:38;;;;;;;41.30;25.63;;;9.10;99.90;;;;;;5071673;28;20467;-71
2023/02/10 09:58:32;;;;;;;37.20;24.10;;;9.30;99.90;;;;;;5069082;28;20936;-72
2023/02/10 10:01:32;;;;;;;38.90;25.93;;;9.40;99.90;;;;;;5062421;28;20650;-71
2023/02/10 10:04:01;;;;;;;35.20;23.93;;;9.50;99.90;;;;;;5049101;28;20713;-71
2023/02/10 10:06:33;;;;;;;38.17;24.30;;;9.50;99.90;;;;;;5072416;28;20429;-71
2023/02/10 10:09:11;;;;;;;37.80;22.97;;;9.50;99.90;;;;;;5062230;28;20437;-71
2023/02/10 10:11:40;;;;;;;37.67;22.67;;;9.40;99.90;;;;;;5058948;28;20434;-71
2023/02/10 10:14:18;;;;;;;33.40;24.30;;;9.40;99.90;;;;;;5060356;28;20443;-75
2023/02/10 10:17:04;;;;;;;35.93;24.00;;;9.40;99.90;;;;;;5051915;28;20414;-68
2023/02/10 10:19:42;;;;;;;29.13;20.10;;;9.50;99.90;;;;;;5051484;28;20906;-67
2023/02/10 10:22:35;;;;;;;30.40;21.67;;;9.60;99.90;;;;;;5054406;28;20448;-68
2023/02/10 10:25:33;;;;;;;35.33;22.20;;;9.60;99.40;;;;;;5062544;28;20438;-68
2023/02/10 10:28:36;;;;;;;34.27;24.67;;;9.60;99.20;;;;;;5071407;28;20436;-72
2023/02/10 10:31:10;;;;;;;34.10;24.70;;;9.80;99.60;;;;;;5062296;28;20436;-70
2023/02/10 10:33:56;;;;;;;35.07;24.47;;;10.00;99.60;;;;;;5070739;28;20469;-70
2023/02/10 10:36:50;;;;;;;32.97;22.93;;;10.30;99.90;;;;;;5064321;28;20539;-71
2023/02/10 10:39:29;;;;;;;36.90;22.20;;;10.70;98.60;;;;;;5072576;28;20418;-71
2023/02/10 10:41:57;;;;;;;36.57;23.17;;;10.90;96.70;;;;;;5054521;28;20477;-71
2023/02/10 10:44:26;;;;;;;37.13;23.60;;;11.10;95.70;;;;;;5068077;28;20434;-70
2023/02/10 10:47:08;;;;;;;34.97;24.77;;;11.10;96.30;;;;;;5071540;28;20427;-75
2023/02/10 10:49:35;;;;;;;33.80;22.03;;;11.20;96.00;;;;;;5056444;28;20458;-74
2023/02/10 10:52:02;;;;;;;34.00;23.70;;;11.60;95.00;;;;;;5056577;28;20704;-74
2023/02/10 10:54:29;;;;;;;38.83;24.93;;;11.90;93.80;;;;;;5054844;28;20455;-74
2023/02/10 10:57:01;;;;;;;34.07;23.97;;;12.20;92.90;;;;;;5055678;28;20434;-75
2023/02/10 10:59:45;;;;;;;33.70;21.50;;;12.40;91.90;;;;;;5054746;28;20392;-74
2023/02/10 11:02:20;;;;;;;29.40;21.80;;;12.50;90.30;;;;;;5070194;28;20442;-74
2023/02/10 11:04:58;;;;;;;30.23;22.37;;;12.70;90.00;;;;;;5074477;28;20398;-79
2023/02/10 11:07:24;;;;;;;32.03;21.97;;;12.70;88.50;;;;;;5075344;28;20395;-74
2023/02/10 11:09:53;;;;;;;30.53;22.63;;;12.70;89.10;;;;;;5074961;28;20402;-68
2023/02/10 11:12:39;;;;;;;34.40;22.47;;;12.90;89.20;;;;;;5075649;28;20183;-69
2023/02/10 11:15:30;;;;;;;32.30;21.10;;;13.00;89.10;;;;;;5057345;28;20461;-68
2023/02/10 11:17:58;;;;;;;29.50;22.73;;;13.20;87.00;;;;;;5053405;28;20873;-66
2023/02/10 11:20:32;;;;;;;32.53;22.60;;;13.30;86.30;;;;;;5037899;28;20427;-67
2023/02/10 11:23:01;;;;;;;30.73;22.30;;;13.30;88.00;;;;;;5058248;28;20429;-66
2023/02/10 11:25:32;;;;;;;29.40;22.10;;;13.30;86.40;;;;;;5074837;28;20414;-65
2023/02/10 11:28:01;;;;;;;36.20;24.03;;;13.30;85.30;;;;;;5069201;28;20417;-66
2023/02/10 11:30:32;;;;;;;31.20;21.30;;;13.20;86.00;;;;;;5073443;28;20421;-66
2023/02/10 11:33:01;;;;;;;28.40;20.50;;;13.10;85.60;;;;;;5056479;28;20425;-66
2023/02/10 11:35:28;;;;;;;29.73;20.00;;;13.00;85.40;;;;;;5054330;28;21007;-66
2023/02/10 11:37:57;;;;;;;30.10;21.30;;;12.80;85.80;;;;;;5054893;28;20410;-66
2023/02/10 11:40:37;;;;;;;28.33;20.63;;;12.60;85.70;;;;;;5053295;28;20412;-65
2023/02/10 11:43:09;;;;;;;28.33;19.93;;;12.40;87.00;;;;;;5034234;28;20412;-68
2023/02/10 11:45:34;;;;;;;26.77;19.07;;;12.20;88.20;;;;;;5035481;28;20412;-66
2023/02/10 11:48:13;;;;;;;28.53;20.40;;;12.20;90.00;;;;;;5016793;28;20405;-67
2023/02/10 11:50:39;;;;;;;30.37;19.90;;;12.30;89.50;;;;;;5034841;28;20462;-66
2023/02/10 11:53:07;;;;;;;29.43;19.00;;;12.30;88.50;;;;;;5034913;28;20887;-66
2023/02/10 11:55:52;;;;;;;30.33;20.50;;;12.30;88.10;;;;;;5035261;28;20201;-66
2023/02/10 12:01:46;;;;;;;31.60;19.90;;;12.20;88.30;;;;;;5017615;28;20469;-66
2023/02/10 12:04:39;;;;;;;29.30;21.27;;;12.40;88.00;;;;;;5022123;28;20439;-66
2023/02/10 12:07:22;;;;;;;30.50;20.73;;;12.70;87.40;;;;;;5016616;28;20803;-66
2023/02/10 12:10:08;;;;;;;28.83;19.93;;;12.70;86.60;;;;;;5034465;28;20423;-67
2023/02/10 12:12:53;;;;;;;32.10;23.33;;;12.70;86.90;;;;;;5041833;28;20501;-66
2023/02/10 12:15:56;;;;;;;26.70;20.70;;;12.60;86.70;;;;;;5054815;28;20803;-66
2023/02/10 12:18:39;;;;;;;28.20;21.00;;;12.50;86.50;;;;;;5054628;28;20400;-66
2023/02/10 12:21:30;;;;;;;30.63;21.73;;;12.40;86.50;;;;;;5054027;28;20400;-66
2023/02/10 12:24:09;;;;;;;31.50;21.90;;;12.30;86.30;;;;;;5054115;28;20401;-66
2023/02/10 12:27:04;;;;;;;27.50;20.43;;;12.30;87.00;;;;;;5054677;28;20415;-66
2023/02/10 12:29:47;;;;;;;33.77;21.10;;;12.20;88.30;;;;;;5018839;28;20506;-66
2023/02/10 12:32:34;;;;;;;35.97;21.20;;;12.00;88.30;;;;;;5054625;28;20428;-66
2023/02/10 12:35:33;;;;;;;32.87;21.60;;;12.10;89.20;;;;;;5053792;28;20447;-66
2023/02/10 12:38:14;;;;;;;32.33;20.30;;;12.20;89.50;;;;;;5053830;28;20411;-66
2023/02/10 12:41:06;;;;;;;27.90;22.23;;;12.30;88.40;;;;;;5054417;28;20470;-65
2023/02/10 12:44:09;;;;;;;28.87;21.13;;;12.30;87.70;;;;;;5053030;28;20452;-66
2023/02/10 12:46:57;;;;;;;31.13;21.77;;;12.20;87.00;;;;;;5054276;28;20515;-67
2023/02/10 12:49:29;;;;;;;34.40;22.33;;;12.10;88.00;;;;;;5053960;28;20416;-66
2023/02/10 12:51:59;;;;;;;27.20;19.07;;;12.20;88.40;;;;;;5035531;28;20508;-67
2023/02/10 12:54:48;;;;;;;26.90;19.70;;;12.20;87.00;;;;;;5053800;28;20528;-67
2023/02/10 12:57:23;;;;;;;31.13;20.20;;;12.10;87.70;;;;;;5053724;28;20491;-66